sensor_id;sensor_type;location;lat;lon;timestamp;temperature;humidity
59923;DHT22;45778;51.142;3.732;2022-08-21T00:02:26;15.60;99.90
59923;DHT22;45778;51.142;3.732;2022-08-21T00:04:52;15.60;99.90
59923;DHT22;45778;51.142;3.732;2022-08-21T00:07:19;15.50;99.90
59923;DHT22;45778;51.142;3.732;2022-08-21T00:09:45;15.50;99.90
59923;DHT22;45778;51.142;3.732;2022-08-21T00:12:11;15.50;99.90
59923;DHT22;45778;51.142;3.732;2022-08-21T00:14:37;15.40;99.90
59923;DHT22;45778;51.142;3.732;2022-08-21T00:17:04;15.40;99.90
59923;DHT22;45778;51.142;3.732;2022-08-21T00:19:31;15.30;99.90
59923;DHT22;45778;51.142;3.732;2022-08-21T00:21:57;15.40;99.90
59923;DHT22;45778;51.142;3.732;2022-08-21T00:24:24;15.50;99.90
59923;DHT22;45778;51.142;3.732;2022-08-21T00:26:50;15.40;99.90
59923;DHT22;45778;51.142;3.732;2022-08-21T00:29:15;15.50;99.90
59923;DHT22;45778;51.142;3.732;2022-08-21T00:31:42;15.50;99.90
59923;DHT22;45778;51.142;3.732;2022-08-21T00:34:09;15.60;99.90
59923;DHT22;45778;51.142;3.732;2022-08-21T00:36:36;15.60;99.90
59923;DHT22;45778;51.142;3.732;2022-08-21T00:39:04;15.60;99.90
59923;DHT22;45778;51.142;3.732;2022-08-21T00:41:30;15.70;99.90
59923;DHT22;45778;51.142;3.732;2022-08-21T00:43:56;15.60;99.90
59923;DHT22;45778;51.142;3.732;2022-08-21T00:46:22;15.50;99.90
59923;DHT22;45778;51.142;3.732;2022-08-21T00:48:48;15.60;99.90
59923;DHT22;45778;51.142;3.732;2022-08-21T00:51:19;15.50;99.90
59923;DHT22;45778;51.142;3.732;2022-08-21T00:53:51;15.60;99.90
59923;DHT22;45778;51.142;3.732;2022-08-21T00:56:19;15.60;99.90
59923;DHT22;45778;51.142;3.732;2022-08-21T00:58:46;15.60;99.90
59923;DHT22;45778;51.142;3.732;2022-08-21T01:01:13;15.50;99.90
59923;DHT22;45778;51.142;3.732;2022-08-21T01:03:39;15.50;99.90
59923;DHT22;45778;51.142;3.732;2022-08-21T01:06:05;15.60;99.90
59923;DHT22;45778;51.142;3.732;2022-08-21T01:08:32;15.60;99.90
59923;DHT22;45778;51.142;3.732;2022-08-21T01:10:59;15.60;99.90
59923;DHT22;45778;51.142;3.732;2022-08-21T01:13:26;15.60;99.90
59923;DHT22;45778;51.142;3.732;2022-08-21T01:15:55;15.50;99.90
59923;DHT22;45778;51.142;3.732;2022-08-21T01:18:22;15.60;99.90
59923;DHT22;45778;51.142;3.732;2022-08-21T01:23:24;15.30;99.90
59923;DHT22;45778;51.142;3.732;2022-08-21T01:25:49;15.40;99.90
59923;DHT22;45778;51.142;3.732;2022-08-21T01:28:15;15.20;99.90
59923;DHT22;45778;51.142;3.732;2022-08-21T01:30:42;15.20;99.90
59923;DHT22;45778;51.142;3.732;2022-08-21T01:33:08;15.20;99.90
59923;DHT22;45778;51.142;3.732;2022-08-21T01:35:34;15.20;99.90
59923;DHT22;45778;51.142;3.732;2022-08-21T01:38:00;15.20;99.90
59923;DHT22;45778;51.142;3.732;2022-08-21T01:40:26;15.30;99.90
59923;DHT22;45778;51.142;3.732;2022-08-21T01:42:52;15.10;99.90
59923;DHT22;45778;51.142;3.732;2022-08-21T01:45:19;15.00;99.90
59923;DHT22;45778;51.142;3.732;2022-08-21T01:47:45;15.00;99.90
59923;DHT22;45778;51.142;3.732;2022-08-21T01:50:13;15.00;99.90
59923;DHT22;45778;51.142;3.732;2022-08-21T01:52:41;15.10;99.90
59923;DHT22;45778;51.142;3.732;2022-08-21T01:55:09;15.20;99.90
59923;DHT22;45778;51.142;3.732;2022-08-21T01:57:35;15.10;99.90
59923;DHT22;45778;51.142;3.732;2022-08-21T02:00:03;15.20;99.90
59923;DHT22;45778;51.142;3.732;2022-08-21T02:02:29;15.20;99.90
59923;DHT22;45778;51.142;3.732;2022-08-21T02:04:55;15.20;99.90
59923;DHT22;45778;51.142;3.732;2022-08-21T02:07:20;15.20;99.90
59923;DHT22;45778;51.142;3.732;2022-08-21T02:09:46;15.20;99.90
59923;DHT22;45778;51.142;3.732;2022-08-21T02:12:12;15.40;99.90
59923;DHT22;45778;51.142;3.732;2022-08-21T02:14:38;15.30;99.90
59923;DHT22;45778;51.142;3.732;2022-08-21T02:17:04;15.20;99.90
59923;DHT22;45778;51.142;3.732;2022-08-21T02:19:30;15.20;99.90
59923;DHT22;45778;51.142;3.732;2022-08-21T02:21:55;15.20;99.90
59923;DHT22;45778;51.142;3.732;2022-08-21T02:24:21;15.20;99.90
59923;DHT22;45778;51.142;3.732;2022-08-21T02:26:46;15.10;99.90
59923;DHT22;45778;51.142;3.732;2022-08-21T02:29:12;15.10;99.90
59923;DHT22;45778;51.142;3.732;2022-08-21T02:31:38;15.20;99.90
59923;DHT22;45778;51.142;3.732;2022-08-21T02:34:04;15.10;99.90
59923;DHT22;45778;51.142;3.732;2022-08-21T02:36:30;15.20;99.90
59923;DHT22;45778;51.142;3.732;2022-08-21T02:38:56;15.10;99.90
59923;DHT22;45778;51.142;3.732;2022-08-21T02:41:22;15.00;99.90
59923;DHT22;45778;51.142;3.732;2022-08-21T02:43:48;15.00;99.90
59923;DHT22;45778;51.142;3.732;2022-08-21T02:46:16;14.90;99.90
59923;DHT22;45778;51.142;3.732;2022-08-21T02:48:42;14.90;99.90
59923;DHT22;45778;51.142;3.732;2022-08-21T02:51:11;14.90;99.90
59923;DHT22;45778;51.142;3.732;2022-08-21T02:53:37;14.90;99.90
59923;DHT22;45778;51.142;3.732;2022-08-21T02:56:06;14.90;99.90
59923;DHT22;45778;51.142;3.732;2022-08-21T02:58:36;14.90;99.90
59923;DHT22;45778;51.142;3.732;2022-08-21T03:01:02;14.90;99.90
59923;DHT22;45778;51.142;3.732;2022-08-21T03:03:29;14.80;99.90
59923;DHT22;45778;51.142;3.732;2022-08-21T03:05:55;14.90;99.90
59923;DHT22;45778;51.142;3.732;2022-08-21T03:08:21;14.90;99.90
59923;DHT22;45778;51.142;3.732;2022-08-21T03:10:50;14.90;99.90
59923;DHT22;45778;51.142;3.732;2022-08-21T03:13:17;14.80;99.90
59923;DHT22;45778;51.142;3.732;2022-08-21T03:15:43;14.80;99.90
59923;DHT22;45778;51.142;3.732;2022-08-21T03:18:10;14.80;99.90
59923;DHT22;45778;51.142;3.732;2022-08-21T03:20:36;14.80;99.90
59923;DHT22;45778;51.142;3.732;2022-08-21T03:23:03;15.00;99.90
59923;DHT22;45778;51.142;3.732;2022-08-21T03:25:30;14.80;99.90
59923;DHT22;45778;51.142;3.732;2022-08-21T03:28:02;14.80;99.90
59923;DHT22;45778;51.142;3.732;2022-08-21T03:30:29;14.80;99.90
59923;DHT22;45778;51.142;3.732;2022-08-21T03:32:57;14.80;99.90
59923;DHT22;45778;51.142;3.732;2022-08-21T03:35:22;14.80;99.90
59923;DHT22;45778;51.142;3.732;2022-08-21T03:37:48;14.70;99.90
59923;DHT22;45778;51.142;3.732;2022-08-21T03:40:16;14.80;99.90
59923;DHT22;45778;51.142;3.732;2022-08-21T03:42:42;14.90;99.90
59923;DHT22;45778;51.142;3.732;2022-08-21T03:45:09;14.80;99.90
59923;DHT22;45778;51.142;3.732;2022-08-21T03:47:35;14.80;99.90
59923;DHT22;45778;51.142;3.732;2022-08-21T03:50:04;14.90;99.90
59923;DHT22;45778;51.142;3.732;2022-08-21T03:52:30;14.80;99.90
59923;DHT22;45778;51.142;3.732;2022-08-21T03:54:56;14.90;99.90
59923;DHT22;45778;51.142;3.732;2022-08-21T03:57:22;14.70;99.90
59923;DHT22;45778;51.142;3.732;2022-08-21T03:59:47;14.70;99.90
59923;DHT22;45778;51.142;3.732;2022-08-21T04:02:16;14.60;99.90
59923;DHT22;45778;51.142;3.732;2022-08-21T04:04:42;14.60;99.90
59923;DHT22;45778;51.142;3.732;2022-08-21T04:07:08;14.50;99.90
59923;DHT22;45778;51.142;3.732;2022-08-21T04:09:34;14.50;99.90
59923;DHT22;45778;51.142;3.732;2022-08-21T04:12:00;14.60;99.90
59923;DHT22;45778;51.142;3.732;2022-08-21T04:14:26;14.60;99.90
59923;DHT22;45778;51.142;3.732;2022-08-21T04:16:51;14.60;99.90
59923;DHT22;45778;51.142;3.732;2022-08-21T04:19:17;14.50;99.90
59923;DHT22;45778;51.142;3.732;2022-08-21T04:21:43;14.50;99.90
59923;DHT22;45778;51.142;3.732;2022-08-21T04:24:09;14.40;99.90
59923;DHT22;45778;51.142;3.732;2022-08-21T04:26:37;14.40;99.90
59923;DHT22;45778;51.142;3.732;2022-08-21T04:29:03;14.40;99.90
59923;DHT22;45778;51.142;3.732;2022-08-21T04:31:32;14.30;99.90
59923;DHT22;45778;51.142;3.732;2022-08-21T04:33:59;14.40;99.90
59923;DHT22;45778;51.142;3.732;2022-08-21T04:36:24;14.30;99.90
59923;DHT22;45778;51.142;3.732;2022-08-21T04:38:50;14.30;99.90
59923;DHT22;45778;51.142;3.732;2022-08-21T04:41:16;14.30;99.90
59923;DHT22;45778;51.142;3.732;2022-08-21T04:43:41;14.30;99.90
59923;DHT22;45778;51.142;3.732;2022-08-21T04:46:08;14.30;99.90
59923;DHT22;45778;51.142;3.732;2022-08-21T04:48:34;14.30;99.90
59923;DHT22;45778;51.142;3.732;2022-08-21T04:51:07;14.30;99.90
59923;DHT22;45778;51.142;3.732;2022-08-21T04:56:11;14.30;99.90
59923;DHT22;45778;51.142;3.732;2022-08-21T04:58:37;14.40;99.90
59923;DHT22;45778;51.142;3.732;2022-08-21T05:01:07;14.30;99.90
59923;DHT22;45778;51.142;3.732;2022-08-21T05:03:34;14.30;99.90
59923;DHT22;45778;51.142;3.732;2022-08-21T05:06:05;14.30;99.90
59923;DHT22;45778;51.142;3.732;2022-08-21T05:08:32;14.40;99.90
59923;DHT22;45778;51.142;3.732;2022-08-21T05:10:58;14.40;99.90
59923;DHT22;45778;51.142;3.732;2022-08-21T05:13:24;14.40;99.90
59923;DHT22;45778;51.142;3.732;2022-08-21T05:15:49;14.40;99.90
59923;DHT22;45778;51.142;3.732;2022-08-21T05:18:15;14.40;99.90
59923;DHT22;45778;51.142;3.732;2022-08-21T05:20:41;14.40;99.90
59923;DHT22;45778;51.142;3.732;2022-08-21T05:23:09;14.50;99.90
59923;DHT22;45778;51.142;3.732;2022-08-21T05:25:35;14.50;99.90
59923;DHT22;45778;51.142;3.732;2022-08-21T05:28:01;14.50;99.90
59923;DHT22;45778;51.142;3.732;2022-08-21T05:30:27;14.60;99.90
59923;DHT22;45778;51.142;3.732;2022-08-21T05:33:00;14.80;99.90
59923;DHT22;45778;51.142;3.732;2022-08-21T05:35:28;14.60;99.90
59923;DHT22;45778;51.142;3.732;2022-08-21T05:37:54;14.60;99.90
59923;DHT22;45778;51.142;3.732;2022-08-21T05:40:21;14.60;99.90
59923;DHT22;45778;51.142;3.732;2022-08-21T05:42:47;14.70;99.90
59923;DHT22;45778;51.142;3.732;2022-08-21T05:45:13;14.70;99.90
59923;DHT22;45778;51.142;3.732;2022-08-21T05:47:39;14.70;99.90
59923;DHT22;45778;51.142;3.732;2022-08-21T05:50:05;14.90;99.90
59923;DHT22;45778;51.142;3.732;2022-08-21T05:52:31;14.70;99.90
59923;DHT22;45778;51.142;3.732;2022-08-21T05:54:57;14.70;99.90
59923;DHT22;45778;51.142;3.732;2022-08-21T05:57:23;14.80;99.90
59923;DHT22;45778;51.142;3.732;2022-08-21T05:59:49;14.90;99.90
59923;DHT22;45778;51.142;3.732;2022-08-21T06:02:18;15.00;99.90
59923;DHT22;45778;51.142;3.732;2022-08-21T06:04:44;15.10;99.90
59923;DHT22;45778;51.142;3.732;2022-08-21T06:07:09;15.20;99.90
59923;DHT22;45778;51.142;3.732;2022-08-21T06:09:36;15.30;99.90
59923;DHT22;45778;51.142;3.732;2022-08-21T06:12:08;15.40;99.90
59923;DHT22;45778;51.142;3.732;2022-08-21T06:14:35;15.40;99.90
59923;DHT22;45778;51.142;3.732;2022-08-21T06:17:09;15.70;99.90
59923;DHT22;45778;51.142;3.732;2022-08-21T06:19:36;15.50;99.90
59923;DHT22;45778;51.142;3.732;2022-08-21T06:22:02;15.70;99.90
59923;DHT22;45778;51.142;3.732;2022-08-21T06:24:28;15.70;99.90
59923;DHT22;45778;51.142;3.732;2022-08-21T06:26:54;15.90;99.90
59923;DHT22;45778;51.142;3.732;2022-08-21T06:29:21;15.90;99.90
59923;DHT22;45778;51.142;3.732;2022-08-21T06:31:48;16.00;99.90
59923;DHT22;45778;51.142;3.732;2022-08-21T06:34:14;16.10;99.90
59923;DHT22;45778;51.142;3.732;2022-08-21T06:36:40;16.10;99.90
59923;DHT22;45778;51.142;3.732;2022-08-21T06:39:06;16.30;99.90
59923;DHT22;45778;51.142;3.732;2022-08-21T06:41:32;16.30;99.90
59923;DHT22;45778;51.142;3.732;2022-08-21T06:43:58;16.40;99.90
59923;DHT22;45778;51.142;3.732;2022-08-21T06:46:26;16.50;99.90
59923;DHT22;45778;51.142;3.732;2022-08-21T06:48:52;16.70;99.90
59923;DHT22;45778;51.142;3.732;2022-08-21T06:51:18;16.60;99.90
59923;DHT22;45778;51.142;3.732;2022-08-21T06:53:44;16.70;99.90
59923;DHT22;45778;51.142;3.732;2022-08-21T06:56:10;16.80;99.90
59923;DHT22;45778;51.142;3.732;2022-08-21T06:58:36;16.90;99.90
59923;DHT22;45778;51.142;3.732;2022-08-21T07:01:02;17.00;99.90
59923;DHT22;45778;51.142;3.732;2022-08-21T07:03:35;17.10;99.90
59923;DHT22;45778;51.142;3.732;2022-08-21T07:06:02;17.30;99.90
59923;DHT22;45778;51.142;3.732;2022-08-21T07:08:28;17.40;99.90
59923;DHT22;45778;51.142;3.732;2022-08-21T07:10:59;17.50;99.90
59923;DHT22;45778;51.142;3.732;2022-08-21T07:13:25;17.60;99.90
59923;DHT22;45778;51.142;3.732;2022-08-21T07:15:51;17.80;99.90
59923;DHT22;45778;51.142;3.732;2022-08-21T07:18:17;17.90;99.90
59923;DHT22;45778;51.142;3.732;2022-08-21T07:20:43;18.00;99.90
59923;DHT22;45778;51.142;3.732;2022-08-21T07:23:21;18.10;99.90
59923;DHT22;45778;51.142;3.732;2022-08-21T07:25:48;18.20;99.90
59923;DHT22;45778;51.142;3.732;2022-08-21T07:28:13;18.30;99.90
59923;DHT22;45778;51.142;3.732;2022-08-21T07:30:39;18.40;99.90
59923;DHT22;45778;51.142;3.732;2022-08-21T07:33:05;18.40;99.90
59923;DHT22;45778;51.142;3.732;2022-08-21T07:35:30;18.50;99.90
59923;DHT22;45778;51.142;3.732;2022-08-21T07:37:58;18.40;99.90
59923;DHT22;45778;51.142;3.732;2022-08-21T07:40:24;18.50;99.90
59923;DHT22;45778;51.142;3.732;2022-08-21T07:42:50;18.50;99.90
59923;DHT22;45778;51.142;3.732;2022-08-21T07:45:21;18.50;99.90
59923;DHT22;45778;51.142;3.732;2022-08-21T07:47:48;18.50;99.90
59923;DHT22;45778;51.142;3.732;2022-08-21T07:50:14;18.60;99.90
59923;DHT22;45778;51.142;3.732;2022-08-21T07:52:41;18.70;99.90
59923;DHT22;45778;51.142;3.732;2022-08-21T07:55:11;18.90;99.90
59923;DHT22;45778;51.142;3.732;2022-08-21T07:57:38;18.90;99.90
59923;DHT22;45778;51.142;3.732;2022-08-21T08:00:06;19.00;99.90
59923;DHT22;45778;51.142;3.732;2022-08-21T08:02:32;18.90;99.90
59923;DHT22;45778;51.142;3.732;2022-08-21T08:05:00;18.90;99.90
59923;DHT22;45778;51.142;3.732;2022-08-21T08:07:26;19.00;99.90
59923;DHT22;45778;51.142;3.732;2022-08-21T08:09:52;19.10;99.90
59923;DHT22;45778;51.142;3.732;2022-08-21T08:12:17;19.10;99.90
59923;DHT22;45778;51.142;3.732;2022-08-21T08:14:43;19.00;99.90
59923;DHT22;45778;51.142;3.732;2022-08-21T08:17:09;19.10;99.90
59923;DHT22;45778;51.142;3.732;2022-08-21T08:19:35;19.10;99.90
59923;DHT22;45778;51.142;3.732;2022-08-21T08:22:01;19.10;99.90
59923;DHT22;45778;51.142;3.732;2022-08-21T08:24:27;19.20;99.90
59923;DHT22;45778;51.142;3.732;2022-08-21T08:26:52;19.50;99.90
59923;DHT22;45778;51.142;3.732;2022-08-21T08:29:20;19.60;99.90
59923;DHT22;45778;51.142;3.732;2022-08-21T08:31:46;19.70;99.90
59923;DHT22;45778;51.142;3.732;2022-08-21T08:34:11;20.00;99.90
59923;DHT22;45778;51.142;3.732;2022-08-21T08:36:37;19.90;99.90
59923;DHT22;45778;51.142;3.732;2022-08-21T08:39:04;20.00;99.90
59923;DHT22;45778;51.142;3.732;2022-08-21T08:41:31;20.10;99.90
59923;DHT22;45778;51.142;3.732;2022-08-21T08:44:03;20.30;99.90
59923;DHT22;45778;51.142;3.732;2022-08-21T08:46:44;20.40;99.90
59923;DHT22;45778;51.142;3.732;2022-08-21T08:49:23;20.60;99.90
59923;DHT22;45778;51.142;3.732;2022-08-21T08:54:56;20.80;99.90
59923;DHT22;45778;51.142;3.732;2022-08-21T08:57:24;21.20;99.90
59923;DHT22;45778;51.142;3.732;2022-08-21T08:59:52;21.40;99.90
59923;DHT22;45778;51.142;3.732;2022-08-21T09:02:20;21.40;99.90
59923;DHT22;45778;51.142;3.732;2022-08-21T09:04:49;21.10;99.90
59923;DHT22;45778;51.142;3.732;2022-08-21T09:10:19;20.80;99.90
59923;DHT22;45778;51.142;3.732;2022-08-21T09:16:00;20.40;99.90
59923;DHT22;45778;51.142;3.732;2022-08-21T09:18:51;20.30;99.90
59923;DHT22;45778;51.142;3.732;2022-08-21T09:21:38;20.30;99.90
59923;DHT22;45778;51.142;3.732;2022-08-21T09:27:08;20.50;99.90
59923;DHT22;45778;51.142;3.732;2022-08-21T09:29:39;21.00;99.90
59923;DHT22;45778;51.142;3.732;2022-08-21T09:32:24;21.50;99.90
59923;DHT22;45778;51.142;3.732;2022-08-21T09:35:00;21.60;99.90
59923;DHT22;45778;51.142;3.732;2022-08-21T09:37:30;21.80;99.90
59923;DHT22;45778;51.142;3.732;2022-08-21T09:39:57;21.70;99.90
59923;DHT22;45778;51.142;3.732;2022-08-21T09:42:29;21.40;99.90
59923;DHT22;45778;51.142;3.732;2022-08-21T09:45:16;21.20;99.90
59923;DHT22;45778;51.142;3.732;2022-08-21T09:47:43;21.30;99.90
59923;DHT22;45778;51.142;3.732;2022-08-21T09:50:19;21.40;99.90
59923;DHT22;45778;51.142;3.732;2022-08-21T09:52:50;21.80;99.90
59923;DHT22;45778;51.142;3.732;2022-08-21T09:55:46;21.70;99.90
59923;DHT22;45778;51.142;3.732;2022-08-21T09:58:33;21.90;99.90
59923;DHT22;45778;51.142;3.732;2022-08-21T10:01:01;21.80;99.90
59923;DHT22;45778;51.142;3.732;2022-08-21T10:03:27;21.80;99.90
59923;DHT22;45778;51.142;3.732;2022-08-21T10:06:26;22.00;99.90
59923;DHT22;45778;51.142;3.732;2022-08-21T10:09:21;22.30;99.90
59923;DHT22;45778;51.142;3.732;2022-08-21T10:14:54;22.50;99.90
59923;DHT22;45778;51.142;3.732;2022-08-21T10:17:33;22.50;99.90
59923;DHT22;45778;51.142;3.732;2022-08-21T10:20:08;22.50;99.90
59923;DHT22;45778;51.142;3.732;2022-08-21T10:30:50;23.30;99.40
59923;DHT22;45778;51.142;3.732;2022-08-21T10:33:26;23.30;99.60
59923;DHT22;45778;51.142;3.732;2022-08-21T10:36:02;23.20;99.60
59923;DHT22;45778;51.142;3.732;2022-08-21T10:54:22;23.50;98.70
59923;DHT22;45778;51.142;3.732;2022-08-21T10:56:57;23.60;98.80
59923;DHT22;45778;51.142;3.732;2022-08-21T10:59:36;23.80;98.30
59923;DHT22;45778;51.142;3.732;2022-08-21T11:07:35;25.10;95.40
59923;DHT22;45778;51.142;3.732;2022-08-21T11:12:53;24.20;95.70
59923;DHT22;45778;51.142;3.732;2022-08-21T11:15:33;23.90;96.60
59923;DHT22;45778;51.142;3.732;2022-08-21T11:18:23;23.90;95.70
59923;DHT22;45778;51.142;3.732;2022-08-21T11:29:33;24.00;96.00
59923;DHT22;45778;51.142;3.732;2022-08-21T11:32:27;23.70;96.20
59923;DHT22;45778;51.142;3.732;2022-08-21T11:37:49;24.20;95.50
59923;DHT22;45778;51.142;3.732;2022-08-21T11:40:24;24.30;95.10
59923;DHT22;45778;51.142;3.732;2022-08-21T11:43:17;24.00;95.80
59923;DHT22;45778;51.142;3.732;2022-08-21T11:45:59;23.70;96.10
59923;DHT22;45778;51.142;3.732;2022-08-21T11:48:48;23.70;96.60
59923;DHT22;45778;51.142;3.732;2022-08-21T11:51:24;24.10;95.60
59923;DHT22;45778;51.142;3.732;2022-08-21T11:54:11;24.10;95.20
59923;DHT22;45778;51.142;3.732;2022-08-21T11:56:46;24.40;94.80
59923;DHT22;45778;51.142;3.732;2022-08-21T11:59:26;24.70;94.10
59923;DHT22;45778;51.142;3.732;2022-08-21T12:01:57;24.50;94.10
59923;DHT22;45778;51.142;3.732;2022-08-21T12:04:35;24.60;94.10
59923;DHT22;45778;51.142;3.732;2022-08-21T12:07:43;25.10;93.60
59923;DHT22;45778;51.142;3.732;2022-08-21T12:10:19;25.10;93.60
59923;DHT22;45778;51.142;3.732;2022-08-21T12:12:48;25.60;93.30
59923;DHT22;45778;51.142;3.732;2022-08-21T12:21:02;25.80;91.50
59923;DHT22;45778;51.142;3.732;2022-08-21T12:23:32;26.40;91.00
59923;DHT22;45778;51.142;3.732;2022-08-21T12:28:40;27.00;90.60
59923;DHT22;45778;51.142;3.732;2022-08-21T12:31:24;26.90;89.20
59923;DHT22;45778;51.142;3.732;2022-08-21T12:33:54;26.80;89.20
59923;DHT22;45778;51.142;3.732;2022-08-21T12:36:24;26.20;89.20
59923;DHT22;45778;51.142;3.732;2022-08-21T12:38:58;25.80;90.40
59923;DHT22;45778;51.142;3.732;2022-08-21T12:41:32;24.80;90.90
59923;DHT22;45778;51.142;3.732;2022-08-21T12:44:08;24.70;91.40
59923;DHT22;45778;51.142;3.732;2022-08-21T12:49:28;24.80;91.80
59923;DHT22;45778;51.142;3.732;2022-08-21T12:52:14;25.20;91.90
59923;DHT22;45778;51.142;3.732;2022-08-21T12:54:43;25.40;91.70
59923;DHT22;45778;51.142;3.732;2022-08-21T12:57:25;25.80;91.20
59923;DHT22;45778;51.142;3.732;2022-08-21T12:59:59;26.60;90.30
59923;DHT22;45778;51.142;3.732;2022-08-21T13:02:32;26.50;89.90
59923;DHT22;45778;51.142;3.732;2022-08-21T13:05:02;26.60;89.40
59923;DHT22;45778;51.142;3.732;2022-08-21T13:07:32;26.70;88.00
59923;DHT22;45778;51.142;3.732;2022-08-21T13:10:06;25.80;88.70
59923;DHT22;45778;51.142;3.732;2022-08-21T13:12:33;25.30;90.80
59923;DHT22;45778;51.142;3.732;2022-08-21T13:15:03;25.00;91.20
59923;DHT22;45778;51.142;3.732;2022-08-21T13:17:32;25.20;91.20
59923;DHT22;45778;51.142;3.732;2022-08-21T13:20:10;26.20;90.80
59923;DHT22;45778;51.142;3.732;2022-08-21T13:22:44;27.10;89.20
59923;DHT22;45778;51.142;3.732;2022-08-21T13:25:13;28.00;87.40
59923;DHT22;45778;51.142;3.732;2022-08-21T13:27:42;28.60;84.10
59923;DHT22;45778;51.142;3.732;2022-08-21T13:30:34;29.40;82.30
59923;DHT22;45778;51.142;3.732;2022-08-21T13:33:03;30.50;78.90
59923;DHT22;45778;51.142;3.732;2022-08-21T13:35:36;31.30;74.60
59923;DHT22;45778;51.142;3.732;2022-08-21T13:38:04;31.20;73.20
59923;DHT22;45778;51.142;3.732;2022-08-21T13:40:45;30.50;73.10
59923;DHT22;45778;51.142;3.732;2022-08-21T13:43:17;30.50;73.70
59923;DHT22;45778;51.142;3.732;2022-08-21T13:45:48;31.30;71.00
59923;DHT22;45778;51.142;3.732;2022-08-21T13:48:13;31.30;70.00
59923;DHT22;45778;51.142;3.732;2022-08-21T13:50:41;30.30;72.40
59923;DHT22;45778;51.142;3.732;2022-08-21T13:53:28;30.00;71.90
59923;DHT22;45778;51.142;3.732;2022-08-21T13:55:55;29.80;72.70
59923;DHT22;45778;51.142;3.732;2022-08-21T13:58:33;28.50;74.70
59923;DHT22;45778;51.142;3.732;2022-08-21T14:01:33;27.10;78.20
59923;DHT22;45778;51.142;3.732;2022-08-21T14:04:04;26.40;79.60
59923;DHT22;45778;51.142;3.732;2022-08-21T14:06:34;26.30;81.20
59923;DHT22;45778;51.142;3.732;2022-08-21T14:09:11;26.30;80.40
59923;DHT22;45778;51.142;3.732;2022-08-21T14:11:38;26.00;81.10
59923;DHT22;45778;51.142;3.732;2022-08-21T14:14:26;26.00;82.50
59923;DHT22;45778;51.142;3.732;2022-08-21T14:17:02;25.80;82.80
59923;DHT22;45778;51.142;3.732;2022-08-21T14:19:45;25.70;82.60
59923;DHT22;45778;51.142;3.732;2022-08-21T14:22:41;25.30;83.90
59923;DHT22;45778;51.142;3.732;2022-08-21T14:25:10;25.30;83.50
59923;DHT22;45778;51.142;3.732;2022-08-21T14:27:43;25.10;84.90
59923;DHT22;45778;51.142;3.732;2022-08-21T14:30:16;25.10;86.20
59923;DHT22;45778;51.142;3.732;2022-08-21T14:32:42;25.50;86.00
59923;DHT22;45778;51.142;3.732;2022-08-21T14:35:08;25.60;83.60
59923;DHT22;45778;51.142;3.732;2022-08-21T14:37:34;26.00;82.60
59923;DHT22;45778;51.142;3.732;2022-08-21T14:40:00;26.30;82.30
59923;DHT22;45778;51.142;3.732;2022-08-21T14:42:27;26.70;81.90
59923;DHT22;45778;51.142;3.732;2022-08-21T14:44:55;26.60;81.50
59923;DHT22;45778;51.142;3.732;2022-08-21T14:47:23;26.50;80.70
59923;DHT22;45778;51.142;3.732;2022-08-21T14:49:49;26.50;80.70
59923;DHT22;45778;51.142;3.732;2022-08-21T14:52:15;26.30;81.50
59923;DHT22;45778;51.142;3.732;2022-08-21T14:54:41;25.70;83.20
59923;DHT22;45778;51.142;3.732;2022-08-21T14:57:09;25.60;83.80
59923;DHT22;45778;51.142;3.732;2022-08-21T14:59:36;25.40;84.60
59923;DHT22;45778;51.142;3.732;2022-08-21T15:02:04;25.50;84.50
59923;DHT22;45778;51.142;3.732;2022-08-21T15:04:30;25.70;83.90
59923;DHT22;45778;51.142;3.732;2022-08-21T15:06:56;25.80;83.60
59923;DHT22;45778;51.142;3.732;2022-08-21T15:09:22;25.50;84.80
59923;DHT22;45778;51.142;3.732;2022-08-21T15:11:48;25.10;85.50
59923;DHT22;45778;51.142;3.732;2022-08-21T15:14:23;24.90;86.00
59923;DHT22;45778;51.142;3.732;2022-08-21T15:16:50;24.80;86.40
59923;DHT22;45778;51.142;3.732;2022-08-21T15:19:16;25.00;85.70
59923;DHT22;45778;51.142;3.732;2022-08-21T15:21:42;25.30;85.20
59923;DHT22;45778;51.142;3.732;2022-08-21T15:24:08;25.70;84.50
59923;DHT22;45778;51.142;3.732;2022-08-21T15:26:34;26.40;83.60
59923;DHT22;45778;51.142;3.732;2022-08-21T15:29:00;26.60;83.50
59923;DHT22;45778;51.142;3.732;2022-08-21T15:31:26;27.00;81.00
59923;DHT22;45778;51.142;3.732;2022-08-21T15:33:53;27.00;80.50
59923;DHT22;45778;51.142;3.732;2022-08-21T15:36:18;27.10;81.30
59923;DHT22;45778;51.142;3.732;2022-08-21T15:38:45;27.20;80.60
59923;DHT22;45778;51.142;3.732;2022-08-21T15:41:11;27.50;80.00
59923;DHT22;45778;51.142;3.732;2022-08-21T15:43:49;27.50;79.40
59923;DHT22;45778;51.142;3.732;2022-08-21T15:46:16;27.80;79.30
59923;DHT22;45778;51.142;3.732;2022-08-21T15:48:43;27.00;80.40
59923;DHT22;45778;51.142;3.732;2022-08-21T15:51:10;28.00;79.70
59923;DHT22;45778;51.142;3.732;2022-08-21T15:53:36;28.50;78.30
59923;DHT22;45778;51.142;3.732;2022-08-21T15:56:26;29.40;76.70
59923;DHT22;45778;51.142;3.732;2022-08-21T15:58:54;30.30;75.30
59923;DHT22;45778;51.142;3.732;2022-08-21T16:01:22;30.10;73.70
59923;DHT22;45778;51.142;3.732;2022-08-21T16:03:50;29.70;74.60
59923;DHT22;45778;51.142;3.732;2022-08-21T16:06:17;29.30;74.10
59923;DHT22;45778;51.142;3.732;2022-08-21T16:08:42;28.80;75.00
59923;DHT22;45778;51.142;3.732;2022-08-21T16:11:09;28.20;74.50
59923;DHT22;45778;51.142;3.732;2022-08-21T16:13:39;28.20;74.90
59923;DHT22;45778;51.142;3.732;2022-08-21T16:16:11;27.90;75.80
59923;DHT22;45778;51.142;3.732;2022-08-21T16:18:38;28.10;76.50
59923;DHT22;45778;51.142;3.732;2022-08-21T16:21:05;28.00;77.00
59923;DHT22;45778;51.142;3.732;2022-08-21T16:23:30;27.50;78.60
59923;DHT22;45778;51.142;3.732;2022-08-21T16:25:58;27.00;79.00
59923;DHT22;45778;51.142;3.732;2022-08-21T16:28:24;26.00;82.10
59923;DHT22;45778;51.142;3.732;2022-08-21T16:30:51;25.90;83.10
59923;DHT22;45778;51.142;3.732;2022-08-21T16:33:41;25.90;83.30
59923;DHT22;45778;51.142;3.732;2022-08-21T16:36:09;25.40;84.00
59923;DHT22;45778;51.142;3.732;2022-08-21T16:38:35;24.60;86.90
59923;DHT22;45778;51.142;3.732;2022-08-21T16:41:04;24.70;88.50
59923;DHT22;45778;51.142;3.732;2022-08-21T16:43:32;24.90;87.10
59923;DHT22;45778;51.142;3.732;2022-08-21T16:45:58;24.70;87.40
59923;DHT22;45778;51.142;3.732;2022-08-21T16:48:26;24.60;87.40
59923;DHT22;45778;51.142;3.732;2022-08-21T16:50:53;24.20;88.60
59923;DHT22;45778;51.142;3.732;2022-08-21T16:53:19;23.70;90.20
59923;DHT22;45778;51.142;3.732;2022-08-21T16:55:46;23.60;90.90
59923;DHT22;45778;51.142;3.732;2022-08-21T16:58:39;23.50;90.90
59923;DHT22;45778;51.142;3.732;2022-08-21T17:01:08;23.60;90.90